Paw Paw, Illinois
Current Conditions -  °F | °C
As of 2:55 PM on Friday 31 Oct 2014 (Local Time) from KRPJ Reporting Station
Broken Clouds Broken Clouds  
Wind Chill: 28°   Ceiling: 4800
Heat Index: 40°   Visibility: 10mi
Dew Point: 20°   Wind: 29mph
Humidity: 46%   Direction: 10°N
Pressure: 30.29"   Gusts: 33mph
Location:  41.69°N, 88.98°W
Report Text: KRPJ 311955Z AUTO 01025G29KT 10SM BKN048 04/M06 A3029 RMK AO2 T00421064
Loading
Personal Weather Stations






























Interactive Weather Map
Tropical Storm Tracking
New forecast layout! Learn more

10-Day Weather Forecast

Advertisements
Track Severe Weather on mobile